createdAt,value
2023-02-11T00:00:23.528Z,14.52
2023-02-11T00:02:50.801Z,14.27
2023-02-11T00:05:18.023Z,14.05
2023-02-11T00:07:45.138Z,14.98
2023-02-11T00:10:12.089Z,19.33
2023-02-11T00:12:39.402Z,15.32
2023-02-11T00:15:07.119Z,14.32
2023-02-11T00:17:34.446Z,13.48
2023-02-11T00:20:01.201Z,22.63
2023-02-11T00:22:28.452Z,13.00
2023-02-11T00:24:57.121Z,14.77
2023-02-11T00:27:24.648Z,16.90
2023-02-11T00:29:52.017Z,12.32
2023-02-11T00:32:19.337Z,11.90
2023-02-11T00:34:46.457Z,9.50
2023-02-11T00:37:13.825Z,16.95
2023-02-11T00:39:42.511Z,14.13
2023-02-11T00:42:09.932Z,22.23
2023-02-11T00:44:37.274Z,16.00
2023-02-11T00:47:04.710Z,12.57
2023-02-11T00:49:31.955Z,10.45
2023-02-11T00:51:59.270Z,19.73
2023-02-11T00:54:28.431Z,12.65
2023-02-11T00:56:57.172Z,14.60
2023-02-11T00:59:25.227Z,13.40
2023-02-11T01:01:52.418Z,8.85
2023-02-11T01:04:20.407Z,14.40
2023-02-11T01:06:47.632Z,21.80
2023-02-11T01:09:14.740Z,16.50
2023-02-11T01:11:41.926Z,16.63
2023-02-11T01:14:09.272Z,15.88
2023-02-11T01:16:36.567Z,19.83
2023-02-11T01:19:03.934Z,15.82
2023-02-11T01:21:31.228Z,18.50
2023-02-11T01:23:58.489Z,16.08
2023-02-11T01:26:25.833Z,16.48
2023-02-11T01:28:52.976Z,13.85
2023-02-11T01:31:20.311Z,17.80
2023-02-11T01:33:47.581Z,18.63
2023-02-11T01:36:14.713Z,19.10
2023-02-11T01:38:43.592Z,20.88
2023-02-11T01:41:12.630Z,15.00
2023-02-11T01:43:44.715Z,17.85
2023-02-11T01:46:29.037Z,17.77
2023-02-11T01:48:58.633Z,12.68
2023-02-11T01:51:27.406Z,20.27
2023-02-11T01:54:15.346Z,7.40
2023-02-11T01:57:03.587Z,11.20
2023-02-11T01:59:40.281Z,17.13
2023-02-11T02:04:39.909Z,19.42
2023-02-11T02:07:13.053Z,17.90
2023-02-11T02:09:42.734Z,16.40
2023-02-11T02:12:10.181Z,18.33
2023-02-11T02:14:41.248Z,11.23
2023-02-11T02:17:11.554Z,19.90
2023-02-11T02:19:52.741Z,17.30
2023-02-11T02:22:22.112Z,7.13
2023-02-11T02:24:59.886Z,16.13
2023-02-11T02:27:30.314Z,17.40
2023-02-11T02:32:44.388Z,14.73
2023-02-11T02:35:17.300Z,10.52
2023-02-11T02:37:52.263Z,12.60
2023-02-11T02:40:22.269Z,20.42
2023-02-11T02:42:50.671Z,13.48
2023-02-11T02:45:17.850Z,21.23
2023-02-11T02:47:45.026Z,17.95
2023-02-11T02:50:14.500Z,11.48
2023-02-11T02:52:51.040Z,6.55
2023-02-11T02:55:26.415Z,15.93
2023-02-11T02:57:54.123Z,14.75
2023-02-11T03:00:31.058Z,18.67
2023-02-11T03:03:07.567Z,12.88
2023-02-11T03:05:44.320Z,12.65
2023-02-11T03:10:41.038Z,17.02
2023-02-11T03:13:08.737Z,10.02
2023-02-11T03:15:39.734Z,19.73
2023-02-11T03:18:08.168Z,20.50
2023-02-11T03:20:37.432Z,14.02
2023-02-11T03:23:24.529Z,17.92
2023-02-11T03:25:55.488Z,11.95
2023-02-11T03:28:22.682Z,11.52
2023-02-11T03:30:54.050Z,14.32
2023-02-11T03:33:25.668Z,23.80
2023-02-11T03:35:58.850Z,13.00
2023-02-11T03:38:29.436Z,16.63
2023-02-11T03:40:56.889Z,18.70
2023-02-11T03:43:30.449Z,14.20
2023-02-11T03:45:57.870Z,11.32
2023-02-11T03:48:30.601Z,17.77
2023-02-11T03:50:59.089Z,10.23
2023-02-11T03:53:25.812Z,19.17
2023-02-11T03:55:55.980Z,15.40
2023-02-11T03:58:23.378Z,18.45
2023-02-11T04:00:51.013Z,17.95
2023-02-11T04:03:19.140Z,16.92
2023-02-11T04:05:46.417Z,17.27
2023-02-11T04:08:13.989Z,21.58
2023-02-11T04:10:41.377Z,16.38
2023-02-11T04:13:08.675Z,15.73
2023-02-11T04:15:35.857Z,19.15
2023-02-11T04:18:03.589Z,24.25
2023-02-11T04:20:31.129Z,14.55
2023-02-11T04:22:58.385Z,22.02
2023-02-11T04:25:26.300Z,21.35
2023-02-11T04:27:53.609Z,15.57
2023-02-11T04:30:20.837Z,23.92
2023-02-11T04:32:48.065Z,17.30
2023-02-11T04:35:15.520Z,25.45
2023-02-11T04:37:42.817Z,21.00
2023-02-11T04:40:10.603Z,24.27
2023-02-11T04:42:38.041Z,21.92
2023-02-11T04:45:05.654Z,24.63
2023-02-11T04:47:33.050Z,20.38
2023-02-11T04:50:00.384Z,23.45
2023-02-11T04:52:27.503Z,21.10
2023-02-11T04:54:54.596Z,16.88
2023-02-11T04:57:21.974Z,25.25
2023-02-11T04:59:49.067Z,20.85
2023-02-11T05:02:16.196Z,26.65
2023-02-11T05:04:43.470Z,22.27
2023-02-11T05:07:10.639Z,25.42
2023-02-11T05:09:37.952Z,26.15
2023-02-11T05:12:05.110Z,23.90
2023-02-11T05:14:33.431Z,23.52
2023-02-11T05:17:00.788Z,31.55
2023-02-11T05:19:28.201Z,25.08
2023-02-11T05:22:02.625Z,26.63
2023-02-11T05:24:32.259Z,21.77
2023-02-11T05:26:59.606Z,28.50
2023-02-11T05:29:26.918Z,10.60
2023-02-11T05:31:54.047Z,19.73
2023-02-11T05:34:21.371Z,26.02
2023-02-11T05:36:48.506Z,21.60
2023-02-11T05:39:15.884Z,30.58
2023-02-11T05:41:43.084Z,31.25
2023-02-11T05:44:10.398Z,22.33
2023-02-11T05:46:37.835Z,26.15
2023-02-11T05:49:05.068Z,28.88
2023-02-11T05:51:32.350Z,34.60
2023-02-11T05:53:59.874Z,26.77
2023-02-11T05:56:27.410Z,31.35
2023-02-11T05:58:54.810Z,9.73
2023-02-11T06:01:21.967Z,27.80
2023-02-11T06:03:50.294Z,29.65
2023-02-11T06:06:18.087Z,26.27
2023-02-11T06:08:45.234Z,27.17
2023-02-11T06:11:12.658Z,27.42
2023-02-11T06:13:39.610Z,29.15
2023-02-11T06:16:07.099Z,30.88
2023-02-11T06:18:34.392Z,27.27
2023-02-11T06:21:01.815Z,32.55
2023-02-11T06:23:30.499Z,30.67
2023-02-11T06:26:02.330Z,31.00
2023-02-11T06:28:31.450Z,22.10
2023-02-11T06:30:59.161Z,33.97
2023-02-11T06:33:26.476Z,32.85
2023-02-11T06:35:53.699Z,36.53
2023-02-11T06:38:20.784Z,30.33
2023-02-11T06:40:49.223Z,32.17
2023-02-11T06:43:16.827Z,31.05
2023-02-11T06:45:44.208Z,29.38
2023-02-11T06:48:11.741Z,37.53
2023-02-11T06:50:39.052Z,31.77
2023-02-11T06:53:06.364Z,32.13
2023-02-11T06:55:35.655Z,32.30
2023-02-11T06:58:02.841Z,30.10
2023-02-11T07:00:30.055Z,38.88
2023-02-11T07:02:57.517Z,35.22
2023-02-11T07:05:24.878Z,30.02
2023-02-11T07:07:52.278Z,35.60
2023-02-11T07:10:19.729Z,38.03
2023-02-11T07:12:47.251Z,32.78
2023-02-11T07:15:14.725Z,37.08
2023-02-11T07:17:41.945Z,39.97
2023-02-11T07:20:12.007Z,32.75
2023-02-11T07:22:39.271Z,32.58
2023-02-11T07:25:07.713Z,34.92
2023-02-11T07:27:34.873Z,33.67
2023-02-11T07:30:02.037Z,35.97
2023-02-11T07:32:29.322Z,35.35
2023-02-11T07:34:56.567Z,39.67
2023-02-11T07:37:23.710Z,32.10
2023-02-11T07:39:50.984Z,34.42
2023-02-11T07:42:18.122Z,37.47
2023-02-11T07:44:45.392Z,36.30
2023-02-11T07:47:12.881Z,30.88
2023-02-11T07:49:40.205Z,33.50
2023-02-11T07:52:07.411Z,33.72
2023-02-11T07:54:34.691Z,33.58
2023-02-11T07:57:02.027Z,37.55
2023-02-11T07:59:29.185Z,34.85
2023-02-11T08:01:56.582Z,35.88
2023-02-11T08:04:23.793Z,37.30
2023-02-11T08:06:52.888Z,34.65
2023-02-11T08:09:20.148Z,37.80
2023-02-11T08:11:47.368Z,29.48
2023-02-11T08:14:14.678Z,39.83
2023-02-11T08:16:41.569Z,35.78
2023-02-11T08:19:11.871Z,30.90
2023-02-11T08:21:39.912Z,32.17
2023-02-11T08:24:07.704Z,30.80
2023-02-11T08:26:35.584Z,33.75
2023-02-11T08:29:03.693Z,32.63
2023-02-11T08:31:33.812Z,36.90
2023-02-11T08:34:02.612Z,33.28
2023-02-11T08:36:30.673Z,29.85
2023-02-11T08:39:17.920Z,31.05
2023-02-11T08:41:47.140Z,36.08
2023-02-11T08:44:15.164Z,37.05
2023-02-11T08:46:42.536Z,41.17
2023-02-11T08:49:09.765Z,30.83
2023-02-11T08:51:36.967Z,29.50
2023-02-11T08:54:04.387Z,34.25
2023-02-11T08:56:33.203Z,38.63
2023-02-11T08:59:00.415Z,31.77
2023-02-11T09:01:28.938Z,31.33
2023-02-11T09:03:56.899Z,28.35
2023-02-11T09:06:24.962Z,28.33
2023-02-11T09:08:53.494Z,33.30
2023-02-11T09:11:22.345Z,30.80
2023-02-11T09:13:51.458Z,28.88
2023-02-11T09:16:21.374Z,31.58
2023-02-11T09:18:49.283Z,30.98
2023-02-11T09:21:17.822Z,32.20
2023-02-11T09:23:51.406Z,29.90
2023-02-11T09:26:26.126Z,35.22
2023-02-11T09:28:53.419Z,28.52
2023-02-11T09:31:22.416Z,29.58
2023-02-11T09:33:50.988Z,27.23
2023-02-11T09:36:19.878Z,30.85
2023-02-11T09:38:47.569Z,29.35
2023-02-11T09:41:26.411Z,20.92
2023-02-11T09:44:03.074Z,32.90
2023-02-11T09:49:23.856Z,26.85
2023-02-11T09:52:09.524Z,29.25
2023-02-11T09:55:04.932Z,30.63
2023-02-11T09:57:39.991Z,30.80
2023-02-11T10:01:08.826Z,22.38
2023-02-11T10:04:17.416Z,26.50
2023-02-11T10:07:24.332Z,29.83
2023-02-11T10:13:48.453Z,30.20
2023-02-11T10:16:50.636Z,27.50
2023-02-11T10:19:35.687Z,25.83
2023-02-11T10:22:13.193Z,28.35
2023-02-11T10:25:05.621Z,25.88
2023-02-11T10:27:34.953Z,22.85
2023-02-11T10:30:14.243Z,26.33
2023-02-11T10:33:07.089Z,23.70
2023-02-11T10:35:38.980Z,28.30
2023-02-11T10:38:19.203Z,22.50
2023-02-11T10:41:08.527Z,24.88
2023-02-11T10:43:41.070Z,25.58
2023-02-11T10:46:19.425Z,25.10
2023-02-11T10:48:50.665Z,24.83
2023-02-11T10:51:19.538Z,27.00
2023-02-11T10:57:18.098Z,20.80
2023-02-11T10:59:45.483Z,27.98
2023-02-11T11:02:53.927Z,29.20
2023-02-11T11:05:46.344Z,22.25
2023-02-11T11:08:14.119Z,23.60
2023-02-11T11:10:46.555Z,23.88
2023-02-11T11:13:37.710Z,22.15
2023-02-11T11:16:11.068Z,20.80
2023-02-11T11:18:39.181Z,20.35
2023-02-11T11:21:07.947Z,20.35
2023-02-11T11:23:38.774Z,18.27
2023-02-11T11:26:42.154Z,20.30
2023-02-11T11:29:20.383Z,16.08
2023-02-11T11:31:53.325Z,19.42
2023-02-11T11:34:30.130Z,12.38
2023-02-11T11:37:02.572Z,13.88
2023-02-11T11:39:33.858Z,14.75
2023-02-11T11:42:33.088Z,13.98
2023-02-11T11:45:15.967Z,13.30
2023-02-11T11:48:05.227Z,17.02
2023-02-11T11:50:53.591Z,16.23
2023-02-11T11:53:29.262Z,16.08
2023-02-11T11:56:07.654Z,15.82
2023-02-11T11:58:36.119Z,18.25
2023-02-11T12:04:03.708Z,16.33
2023-02-11T12:06:41.163Z,15.32
2023-02-11T12:09:27.534Z,11.25
2023-02-11T12:12:22.015Z,14.23
2023-02-11T12:15:07.983Z,14.35
2023-02-11T12:17:47.556Z,13.48
2023-02-11T12:20:18.252Z,11.52
2023-02-11T12:23:24.127Z,12.32
2023-02-11T12:26:09.713Z,13.88
2023-02-11T12:29:02.301Z,14.95
2023-02-11T12:31:38.096Z,12.57
2023-02-11T12:34:19.486Z,12.77
2023-02-11T12:36:56.037Z,15.25
2023-02-11T12:39:38.571Z,12.55
2023-02-11T12:42:49.413Z,12.75
2023-02-11T12:45:31.548Z,14.85
2023-02-11T12:48:10.358Z,12.50
2023-02-11T12:51:00.084Z,12.43
2023-02-11T12:53:27.405Z,12.27
2023-02-11T12:56:06.373Z,11.73
2023-02-11T12:58:44.929Z,13.00
2023-02-11T13:01:27.882Z,11.40
2023-02-11T13:04:05.714Z,13.38
2023-02-11T13:06:56.252Z,11.45
2023-02-11T13:09:53.881Z,13.05
2023-02-11T13:12:44.799Z,13.65
2023-02-11T13:15:15.121Z,12.30
2023-02-11T13:17:54.844Z,11.80
2023-02-11T13:21:02.201Z,11.35
2023-02-11T13:23:38.605Z,13.48
2023-02-11T13:26:13.005Z,11.18
2023-02-11T13:28:52.639Z,12.27
2023-02-11T13:31:20.720Z,13.38
2023-02-11T13:33:49.933Z,12.60
2023-02-11T13:36:19.821Z,12.40
2023-02-11T13:39:06.700Z,14.20
2023-02-11T13:44:26.740Z,11.98
2023-02-11T13:47:06.154Z,12.77
2023-02-11T13:49:37.597Z,13.02
2023-02-11T13:52:06.801Z,12.77
2023-02-11T13:57:27.110Z,16.20
2023-02-11T14:00:20.602Z,13.93
2023-02-11T14:03:35.818Z,13.63
2023-02-11T14:06:27.739Z,15.05
2023-02-11T14:09:10.135Z,12.35
2023-02-11T14:11:56.200Z,16.58
2023-02-11T14:14:26.798Z,15.60
2023-02-11T14:16:53.982Z,12.75
2023-02-11T14:19:33.024Z,12.32
2023-02-11T14:22:13.626Z,13.10
2023-02-11T14:24:46.294Z,13.23
2023-02-11T14:27:42.158Z,13.90
2023-02-11T14:30:30.219Z,14.13
2023-02-11T14:32:57.704Z,15.10
2023-02-11T14:35:46.222Z,10.88
2023-02-11T14:38:19.750Z,13.07
2023-02-11T14:41:00.989Z,14.82
2023-02-11T14:43:35.460Z,15.32
2023-02-11T14:46:03.634Z,13.70
2023-02-11T14:48:32.439Z,11.90
2023-02-11T14:51:03.801Z,14.70
2023-02-11T14:53:32.630Z,13.32
2023-02-11T14:55:59.843Z,11.90
2023-02-11T14:58:29.700Z,15.68
2023-02-11T15:01:09.088Z,14.27
2023-02-11T15:03:48.585Z,13.05
2023-02-11T15:06:18.876Z,11.40
2023-02-11T15:08:48.507Z,12.18
2023-02-11T15:11:18.159Z,13.55
2023-02-11T15:13:49.847Z,13.43
2023-02-11T15:16:19.784Z,12.68
2023-02-11T15:18:52.186Z,13.10
2023-02-11T15:21:23.775Z,10.63
2023-02-11T15:24:02.128Z,12.75
2023-02-11T15:26:30.240Z,15.38
2023-02-11T15:28:57.551Z,11.85
2023-02-11T15:31:26.308Z,14.73
2023-02-11T15:33:54.048Z,13.50
2023-02-11T15:36:28.243Z,15.20
2023-02-11T15:39:14.386Z,13.32
2023-02-11T15:41:41.591Z,12.00
2023-02-11T15:44:27.351Z,12.82
2023-02-11T15:46:54.928Z,14.15
2023-02-11T15:49:23.239Z,11.38
2023-02-11T15:51:50.675Z,13.10
2023-02-11T15:54:26.752Z,13.70
2023-02-11T15:56:55.573Z,14.18
2023-02-11T15:59:38.242Z,12.32
2023-02-11T16:02:15.172Z,11.35
2023-02-11T16:04:49.705Z,13.43
2023-02-11T16:07:35.763Z,13.05
2023-02-11T16:10:03.017Z,14.73
2023-02-11T16:12:30.343Z,13.77
2023-02-11T16:14:59.803Z,13.85
2023-02-11T16:17:28.439Z,13.98
2023-02-11T16:19:55.892Z,12.00
2023-02-11T16:22:30.407Z,14.68
2023-02-11T16:24:59.462Z,11.98
2023-02-11T16:27:38.894Z,17.15
2023-02-11T16:30:07.300Z,14.38
2023-02-11T16:32:34.806Z,16.38
2023-02-11T16:35:02.180Z,13.45
2023-02-11T16:37:32.642Z,14.77
2023-02-11T16:40:23.857Z,16.58
2023-02-11T16:42:49.249Z,19.38
2023-02-11T16:45:16.612Z,16.90
2023-02-11T16:47:47.494Z,16.90
2023-02-11T16:50:22.211Z,12.63
2023-02-11T16:52:49.537Z,14.93
2023-02-11T16:55:16.720Z,14.65
2023-02-11T16:57:44.297Z,16.65
2023-02-11T17:00:12.017Z,14.68
2023-02-11T17:02:39.596Z,14.57
2023-02-11T17:05:08.214Z,15.27
2023-02-11T17:07:35.950Z,19.02
2023-02-11T17:10:03.417Z,14.82
2023-02-11T17:12:30.572Z,16.80
2023-02-11T17:14:57.718Z,15.98
2023-02-11T17:17:24.805Z,14.82
2023-02-11T17:19:52.094Z,14.75
2023-02-11T17:22:19.430Z,16.45
2023-02-11T17:24:46.643Z,18.00
2023-02-11T17:27:13.947Z,15.70
2023-02-11T17:29:41.308Z,14.15
2023-02-11T17:32:08.814Z,16.85
2023-02-11T17:34:36.056Z,16.23
2023-02-11T17:37:09.202Z,19.25
2023-02-11T17:39:40.268Z,16.85
2023-02-11T17:42:08.778Z,18.48
2023-02-11T17:44:36.170Z,18.30
2023-02-11T17:47:03.961Z,17.20
2023-02-11T17:49:31.218Z,15.73
2023-02-11T17:51:58.476Z,14.93
2023-02-11T17:54:26.236Z,17.98
2023-02-11T17:56:57.833Z,16.77
2023-02-11T17:59:25.948Z,18.88
2023-02-11T18:01:53.227Z,19.13
2023-02-11T18:04:20.610Z,18.55
2023-02-11T18:06:48.144Z,17.60
2023-02-11T18:09:15.422Z,18.38
2023-02-11T18:11:42.901Z,18.60
2023-02-11T18:14:10.685Z,17.92
2023-02-11T18:16:39.541Z,17.00
2023-02-11T18:19:07.957Z,17.85
2023-02-11T18:21:35.565Z,17.77
2023-02-11T18:24:06.842Z,23.77
2023-02-11T18:26:34.564Z,19.02
2023-02-11T18:29:01.970Z,16.15
2023-02-11T18:31:29.195Z,21.98
2023-02-11T18:33:56.664Z,18.70
2023-02-11T18:36:24.118Z,18.70
2023-02-11T18:38:53.355Z,17.85
2023-02-11T18:41:20.679Z,17.40
2023-02-11T18:43:47.891Z,20.02
2023-02-11T18:46:15.826Z,19.83
2023-02-11T18:48:44.739Z,19.60
2023-02-11T18:51:13.553Z,21.88
2023-02-11T18:53:41.020Z,18.60
2023-02-11T18:56:09.604Z,18.08
2023-02-11T18:58:38.066Z,22.20
2023-02-11T19:01:16.301Z,22.40
2023-02-11T19:03:44.358Z,19.67
2023-02-11T19:06:16.144Z,21.73
2023-02-11T19:08:43.567Z,20.55
2023-02-11T19:11:10.869Z,23.90
2023-02-11T19:13:38.109Z,20.75
2023-02-11T19:16:08.200Z,23.85
2023-02-11T19:18:38.728Z,24.58
2023-02-11T19:21:10.067Z,52.65
2023-02-11T19:23:37.613Z,27.02
2023-02-11T19:26:06.426Z,19.17
2023-02-11T19:28:35.164Z,30.63
2023-02-11T19:31:06.310Z,31.33
2023-02-11T19:33:33.573Z,42.10
2023-02-11T19:36:05.324Z,27.48
2023-02-11T19:38:32.444Z,19.90
2023-02-11T19:40:59.640Z,23.08
2023-02-11T19:43:26.988Z,23.58
2023-02-11T19:45:56.461Z,52.70
2023-02-11T19:48:26.794Z,24.75
2023-02-11T19:53:22.002Z,28.30
2023-02-11T19:55:50.055Z,52.53
2023-02-11T19:58:17.714Z,81.82
2023-02-11T20:00:44.834Z,29.80
2023-02-11T20:03:12.247Z,20.75
2023-02-11T20:05:47.208Z,28.65
2023-02-11T20:08:17.163Z,63.40
2023-02-11T20:10:44.077Z,27.10
2023-02-11T20:13:11.537Z,18.50
2023-02-11T20:15:38.739Z,18.63
2023-02-11T20:18:06.021Z,18.95
2023-02-11T20:20:33.238Z,20.40
2023-02-11T20:23:00.554Z,16.48
2023-02-11T20:25:28.048Z,17.33
2023-02-11T20:27:55.371Z,23.08
2023-02-11T20:30:22.777Z,19.50
2023-02-11T20:32:50.041Z,19.83
2023-02-11T20:35:17.813Z,19.48
2023-02-11T20:37:45.176Z,19.85
2023-02-11T20:40:12.567Z,22.13
2023-02-11T20:42:40.593Z,20.38
2023-02-11T20:45:08.388Z,19.13
2023-02-11T20:47:35.637Z,19.85
2023-02-11T20:50:02.952Z,22.90
2023-02-11T20:52:30.280Z,24.73
2023-02-11T20:54:57.613Z,20.85
2023-02-11T20:57:24.722Z,22.65
2023-02-11T20:59:52.138Z,20.80
2023-02-11T21:02:23.554Z,18.00
2023-02-11T21:04:51.730Z,20.50
2023-02-11T21:07:21.679Z,20.05
2023-02-11T21:09:48.880Z,21.70
2023-02-11T21:12:16.094Z,18.75
2023-02-11T21:14:43.470Z,17.98
2023-02-11T21:17:13.042Z,18.13
2023-02-11T21:19:41.549Z,20.15
2023-02-11T21:22:08.898Z,20.27
2023-02-11T21:24:36.166Z,23.13
2023-02-11T21:27:03.548Z,22.25
2023-02-11T21:29:30.718Z,18.75
2023-02-11T21:31:57.932Z,17.13
2023-02-11T21:34:25.245Z,21.52
2023-02-11T21:36:53.342Z,23.58
2023-02-11T21:39:20.805Z,24.35
2023-02-11T21:41:48.078Z,22.65
2023-02-11T21:44:15.363Z,17.20
2023-02-11T21:46:42.700Z,19.15
2023-02-11T21:49:09.987Z,19.98
2023-02-11T21:51:37.020Z,23.23
2023-02-11T21:54:04.456Z,21.60
2023-02-11T21:56:33.301Z,20.13
2023-02-11T21:59:00.822Z,20.35
2023-02-11T22:01:29.199Z,21.58
2023-02-11T22:03:57.227Z,21.30
2023-02-11T22:06:31.239Z,23.23
2023-02-11T22:08:59.468Z,20.77
2023-02-11T22:11:26.632Z,21.20
2023-02-11T22:13:55.983Z,20.02
2023-02-11T22:16:23.390Z,20.55
2023-02-11T22:18:51.514Z,21.77
2023-02-11T22:21:22.070Z,21.20
2023-02-11T22:26:18.125Z,24.52
2023-02-11T22:28:45.553Z,19.88
2023-02-11T22:31:13.810Z,21.35
2023-02-11T22:33:41.467Z,22.15
2023-02-11T22:36:10.117Z,24.88
2023-02-11T22:38:37.262Z,20.70
2023-02-11T22:41:09.013Z,22.83
2023-02-11T22:43:36.896Z,25.08
2023-02-11T22:46:05.670Z,20.02
2023-02-11T22:48:34.210Z,20.80
2023-02-11T22:51:08.543Z,22.90
2023-02-11T22:53:35.772Z,22.95
2023-02-11T22:56:14.810Z,20.55
2023-02-11T22:58:42.627Z,26.63
2023-02-11T23:01:09.978Z,20.35
2023-02-11T23:03:37.540Z,21.38
2023-02-11T23:06:05.029Z,22.25
2023-02-11T23:08:32.587Z,21.98
2023-02-11T23:11:07.509Z,20.10
2023-02-11T23:13:37.456Z,21.30
2023-02-11T23:16:05.994Z,26.15
2023-02-11T23:18:33.391Z,21.65
2023-02-11T23:21:05.704Z,22.90
2023-02-11T23:23:33.121Z,25.13
2023-02-11T23:26:00.420Z,21.02
2023-02-11T23:28:27.705Z,22.17
2023-02-11T23:30:55.493Z,23.75
2023-02-11T23:33:23.002Z,23.88
2023-02-11T23:35:50.190Z,22.38
2023-02-11T23:38:17.379Z,22.10
2023-02-11T23:40:44.530Z,22.75
2023-02-11T23:43:11.857Z,25.25
2023-02-11T23:45:39.227Z,21.75
2023-02-11T23:48:06.408Z,24.58
2023-02-11T23:50:34.506Z,25.83
2023-02-11T23:53:01.883Z,24.13
2023-02-11T23:55:28.983Z,23.08
2023-02-11T23:57:56.180Z,23.02
